sensor_id;sensor_type;location;lat;lon;timestamp;temperature;humidity
29687;DHT22;16599;47.078;15.536;2024-01-27T00:00:50;7.30;62.70
29687;DHT22;16599;47.078;15.536;2024-01-27T00:03:17;7.30;63.30
29687;DHT22;16599;47.078;15.536;2024-01-27T00:05:44;7.30;62.90
29687;DHT22;16599;47.078;15.536;2024-01-27T00:08:11;7.30;63.10
29687;DHT22;16599;47.078;15.536;2024-01-27T00:10:38;6.80;65.70
29687;DHT22;16599;47.078;15.536;2024-01-27T00:13:04;6.40;67.80
29687;DHT22;16599;47.078;15.536;2024-01-27T00:15:31;6.20;68.90
29687;DHT22;16599;47.078;15.536;2024-01-27T00:17:58;6.10;68.70
29687;DHT22;16599;47.078;15.536;2024-01-27T00:20:25;6.00;68.80
29687;DHT22;16599;47.078;15.536;2024-01-27T00:22:52;5.80;69.70
29687;DHT22;16599;47.078;15.536;2024-01-27T00:25:19;6.30;67.00
29687;DHT22;16599;47.078;15.536;2024-01-27T00:27:46;6.00;67.90
29687;DHT22;16599;47.078;15.536;2024-01-27T00:30:13;6.10;68.10
29687;DHT22;16599;47.078;15.536;2024-01-27T00:32:40;6.10;68.30
29687;DHT22;16599;47.078;15.536;2024-01-27T00:35:07;6.10;67.50
29687;DHT22;16599;47.078;15.536;2024-01-27T00:37:35;6.40;65.60
29687;DHT22;16599;47.078;15.536;2024-01-27T00:40:01;6.30;66.10
29687;DHT22;16599;47.078;15.536;2024-01-27T00:42:28;6.10;66.20
29687;DHT22;16599;47.078;15.536;2024-01-27T00:44:55;6.30;65.20
29687;DHT22;16599;47.078;15.536;2024-01-27T00:47:22;6.20;65.40
29687;DHT22;16599;47.078;15.536;2024-01-27T00:49:49;6.00;66.80
29687;DHT22;16599;47.078;15.536;2024-01-27T00:52:16;5.80;67.30
29687;DHT22;16599;47.078;15.536;2024-01-27T00:54:43;6.50;63.60
29687;DHT22;16599;47.078;15.536;2024-01-27T00:57:09;6.30;64.60
29687;DHT22;16599;47.078;15.536;2024-01-27T00:59:36;6.50;63.90
29687;DHT22;16599;47.078;15.536;2024-01-27T01:02:03;6.10;65.60
29687;DHT22;16599;47.078;15.536;2024-01-27T01:04:30;5.90;67.20
29687;DHT22;16599;47.078;15.536;2024-01-27T01:06:57;5.70;67.70
29687;DHT22;16599;47.078;15.536;2024-01-27T01:09:24;5.60;68.40
29687;DHT22;16599;47.078;15.536;2024-01-27T01:11:51;5.70;68.10
29687;DHT22;16599;47.078;15.536;2024-01-27T01:14:18;5.60;68.60
29687;DHT22;16599;47.078;15.536;2024-01-27T01:16:45;5.50;69.30
29687;DHT22;16599;47.078;15.536;2024-01-27T01:19:11;5.40;69.80
29687;DHT22;16599;47.078;15.536;2024-01-27T01:21:38;5.40;69.30
29687;DHT22;16599;47.078;15.536;2024-01-27T01:24:05;5.20;70.80
29687;DHT22;16599;47.078;15.536;2024-01-27T01:26:32;5.00;71.10
29687;DHT22;16599;47.078;15.536;2024-01-27T01:28:58;5.10;70.90
29687;DHT22;16599;47.078;15.536;2024-01-27T01:31:25;5.50;69.20
29687;DHT22;16599;47.078;15.536;2024-01-27T01:33:52;5.70;68.40
29687;DHT22;16599;47.078;15.536;2024-01-27T01:36:19;5.80;67.30
29687;DHT22;16599;47.078;15.536;2024-01-27T01:38:46;5.70;68.30
29687;DHT22;16599;47.078;15.536;2024-01-27T01:41:13;5.80;66.40
29687;DHT22;16599;47.078;15.536;2024-01-27T01:43:40;5.70;66.20
29687;DHT22;16599;47.078;15.536;2024-01-27T01:46:07;5.70;66.70
29687;DHT22;16599;47.078;15.536;2024-01-27T01:48:34;5.50;67.90
29687;DHT22;16599;47.078;15.536;2024-01-27T01:51:01;5.30;67.80
29687;DHT22;16599;47.078;15.536;2024-01-27T01:53:28;6.00;65.20
29687;DHT22;16599;47.078;15.536;2024-01-27T01:55:55;6.00;64.50
29687;DHT22;16599;47.078;15.536;2024-01-27T01:58:21;5.60;67.20
29687;DHT22;16599;47.078;15.536;2024-01-27T02:00:48;5.20;68.40
29687;DHT22;16599;47.078;15.536;2024-01-27T02:03:15;5.00;70.30
29687;DHT22;16599;47.078;15.536;2024-01-27T02:05:42;4.90;69.40
29687;DHT22;16599;47.078;15.536;2024-01-27T02:08:09;4.90;70.20
29687;DHT22;16599;47.078;15.536;2024-01-27T02:10:36;4.80;69.80
29687;DHT22;16599;47.078;15.536;2024-01-27T02:13:04;4.80;71.00
29687;DHT22;16599;47.078;15.536;2024-01-27T02:15:32;4.70;70.00
29687;DHT22;16599;47.078;15.536;2024-01-27T02:17:59;4.50;70.80
29687;DHT22;16599;47.078;15.536;2024-01-27T02:20:25;4.50;70.90
29687;DHT22;16599;47.078;15.536;2024-01-27T02:22:52;4.30;71.50
29687;DHT22;16599;47.078;15.536;2024-01-27T02:25:19;4.50;70.50
29687;DHT22;16599;47.078;15.536;2024-01-27T02:27:46;5.00;68.70
29687;DHT22;16599;47.078;15.536;2024-01-27T02:30:12;4.70;69.20
29687;DHT22;16599;47.078;15.536;2024-01-27T02:32:39;4.60;69.30
29687;DHT22;16599;47.078;15.536;2024-01-27T02:35:06;4.60;69.00
29687;DHT22;16599;47.078;15.536;2024-01-27T02:37:34;4.50;70.10
29687;DHT22;16599;47.078;15.536;2024-01-27T02:40:01;4.60;68.50
29687;DHT22;16599;47.078;15.536;2024-01-27T02:42:27;4.30;71.50
29687;DHT22;16599;47.078;15.536;2024-01-27T02:44:54;4.10;72.40
29687;DHT22;16599;47.078;15.536;2024-01-27T02:47:21;4.40;70.60
29687;DHT22;16599;47.078;15.536;2024-01-27T02:49:48;4.60;68.10
29687;DHT22;16599;47.078;15.536;2024-01-27T02:52:15;4.30;70.80
29687;DHT22;16599;47.078;15.536;2024-01-27T02:54:42;4.30;70.70
29687;DHT22;16599;47.078;15.536;2024-01-27T02:57:08;4.10;71.00
29687;DHT22;16599;47.078;15.536;2024-01-27T02:59:35;4.10;71.20
29687;DHT22;16599;47.078;15.536;2024-01-27T03:02:02;4.00;72.70
29687;DHT22;16599;47.078;15.536;2024-01-27T03:04:29;3.80;73.30
29687;DHT22;16599;47.078;15.536;2024-01-27T03:06:55;3.30;75.60
29687;DHT22;16599;47.078;15.536;2024-01-27T03:09:22;3.20;76.50
29687;DHT22;16599;47.078;15.536;2024-01-27T03:11:49;3.10;77.80
29687;DHT22;16599;47.078;15.536;2024-01-27T03:14:16;3.20;75.80
29687;DHT22;16599;47.078;15.536;2024-01-27T03:16:43;3.70;74.70
29687;DHT22;16599;47.078;15.536;2024-01-27T03:19:10;3.70;74.00
29687;DHT22;16599;47.078;15.536;2024-01-27T03:21:37;3.40;75.00
29687;DHT22;16599;47.078;15.536;2024-01-27T03:24:04;3.20;76.40
29687;DHT22;16599;47.078;15.536;2024-01-27T03:26:32;2.60;78.90
29687;DHT22;16599;47.078;15.536;2024-01-27T03:28:59;2.70;79.30
29687;DHT22;16599;47.078;15.536;2024-01-27T03:31:30;2.60;79.30
29687;DHT22;16599;47.078;15.536;2024-01-27T03:33:58;2.30;81.50
29687;DHT22;16599;47.078;15.536;2024-01-27T03:36:25;2.00;83.00
29687;DHT22;16599;47.078;15.536;2024-01-27T03:38:52;2.30;82.30
29687;DHT22;16599;47.078;15.536;2024-01-27T03:41:19;5.30;67.60
29687;DHT22;16599;47.078;15.536;2024-01-27T03:43:46;5.20;66.40
29687;DHT22;16599;47.078;15.536;2024-01-27T03:46:13;6.20;62.40
29687;DHT22;16599;47.078;15.536;2024-01-27T03:48:40;5.60;63.90
29687;DHT22;16599;47.078;15.536;2024-01-27T03:51:07;5.40;65.40
29687;DHT22;16599;47.078;15.536;2024-01-27T03:53:34;5.60;65.00
29687;DHT22;16599;47.078;15.536;2024-01-27T03:56:01;5.60;63.60
29687;DHT22;16599;47.078;15.536;2024-01-27T03:58:31;5.00;66.80
29687;DHT22;16599;47.078;15.536;2024-01-27T04:00:58;5.30;67.20
29687;DHT22;16599;47.078;15.536;2024-01-27T04:03:25;5.40;65.30
29687;DHT22;16599;47.078;15.536;2024-01-27T04:05:52;5.40;66.10
29687;DHT22;16599;47.078;15.536;2024-01-27T04:08:19;5.30;66.40
29687;DHT22;16599;47.078;15.536;2024-01-27T04:10:45;5.00;67.60
29687;DHT22;16599;47.078;15.536;2024-01-27T04:13:12;6.00;64.80
29687;DHT22;16599;47.078;15.536;2024-01-27T04:15:39;5.70;64.70
29687;DHT22;16599;47.078;15.536;2024-01-27T04:18:06;5.60;65.20
29687;DHT22;16599;47.078;15.536;2024-01-27T04:20:38;5.60;65.20
29687;DHT22;16599;47.078;15.536;2024-01-27T04:23:05;5.60;65.60
29687;DHT22;16599;47.078;15.536;2024-01-27T04:25:32;5.70;65.50
29687;DHT22;16599;47.078;15.536;2024-01-27T04:27:58;6.20;63.10
29687;DHT22;16599;47.078;15.536;2024-01-27T04:30:25;5.90;64.10
29687;DHT22;16599;47.078;15.536;2024-01-27T04:32:52;5.80;64.90
29687;DHT22;16599;47.078;15.536;2024-01-27T04:35:19;5.50;66.30
29687;DHT22;16599;47.078;15.536;2024-01-27T04:37:45;5.30;67.80
29687;DHT22;16599;47.078;15.536;2024-01-27T04:40:12;5.40;67.10
29687;DHT22;16599;47.078;15.536;2024-01-27T04:42:39;5.40;66.80
29687;DHT22;16599;47.078;15.536;2024-01-27T04:45:06;5.70;65.80
29687;DHT22;16599;47.078;15.536;2024-01-27T04:47:33;5.70;65.60
29687;DHT22;16599;47.078;15.536;2024-01-27T04:50:00;5.60;66.10
29687;DHT22;16599;47.078;15.536;2024-01-27T04:52:27;5.60;66.10
29687;DHT22;16599;47.078;15.536;2024-01-27T04:54:54;6.20;63.40
29687;DHT22;16599;47.078;15.536;2024-01-27T04:57:20;5.90;64.40
29687;DHT22;16599;47.078;15.536;2024-01-27T04:59:47;5.80;64.90
29687;DHT22;16599;47.078;15.536;2024-01-27T05:02:14;5.90;64.40
29687;DHT22;16599;47.078;15.536;2024-01-27T05:04:41;5.70;65.00
29687;DHT22;16599;47.078;15.536;2024-01-27T05:07:07;6.00;64.10
29687;DHT22;16599;47.078;15.536;2024-01-27T05:09:35;5.70;64.90
29687;DHT22;16599;47.078;15.536;2024-01-27T05:12:02;5.60;65.60
29687;DHT22;16599;47.078;15.536;2024-01-27T05:14:29;5.60;65.40
29687;DHT22;16599;47.078;15.536;2024-01-27T05:16:56;5.40;66.80
29687;DHT22;16599;47.078;15.536;2024-01-27T05:19:22;5.10;67.30
29687;DHT22;16599;47.078;15.536;2024-01-27T05:21:49;5.10;67.70
29687;DHT22;16599;47.078;15.536;2024-01-27T05:24:16;5.10;67.90
29687;DHT22;16599;47.078;15.536;2024-01-27T05:26:43;4.90;68.80
29687;DHT22;16599;47.078;15.536;2024-01-27T05:29:10;4.60;70.10
29687;DHT22;16599;47.078;15.536;2024-01-27T05:31:37;4.40;71.20
29687;DHT22;16599;47.078;15.536;2024-01-27T05:34:04;4.40;71.40
29687;DHT22;16599;47.078;15.536;2024-01-27T05:36:31;4.10;72.20
29687;DHT22;16599;47.078;15.536;2024-01-27T05:38:58;5.40;67.00
29687;DHT22;16599;47.078;15.536;2024-01-27T05:41:25;5.80;64.40
29687;DHT22;16599;47.078;15.536;2024-01-27T05:43:52;6.30;62.00
29687;DHT22;16599;47.078;15.536;2024-01-27T05:46:20;6.10;62.40
29687;DHT22;16599;47.078;15.536;2024-01-27T05:48:46;5.50;64.80
29687;DHT22;16599;47.078;15.536;2024-01-27T05:51:13;5.80;63.80
29687;DHT22;16599;47.078;15.536;2024-01-27T05:53:40;5.70;63.80
29687;DHT22;16599;47.078;15.536;2024-01-27T05:56:07;5.50;65.50
29687;DHT22;16599;47.078;15.536;2024-01-27T05:58:34;5.90;63.40
29687;DHT22;16599;47.078;15.536;2024-01-27T06:01:00;5.60;64.70
29687;DHT22;16599;47.078;15.536;2024-01-27T06:03:27;5.60;63.90
29687;DHT22;16599;47.078;15.536;2024-01-27T06:05:54;5.70;63.00
29687;DHT22;16599;47.078;15.536;2024-01-27T06:08:21;5.80;63.10
29687;DHT22;16599;47.078;15.536;2024-01-27T06:10:48;5.50;63.50
29687;DHT22;16599;47.078;15.536;2024-01-27T06:13:15;5.30;64.70
29687;DHT22;16599;47.078;15.536;2024-01-27T06:15:42;5.30;65.50
29687;DHT22;16599;47.078;15.536;2024-01-27T06:18:09;4.90;66.90
29687;DHT22;16599;47.078;15.536;2024-01-27T06:20:36;5.20;65.30
29687;DHT22;16599;47.078;15.536;2024-01-27T06:23:03;5.20;65.30
29687;DHT22;16599;47.078;15.536;2024-01-27T06:25:30;5.50;64.00
29687;DHT22;16599;47.078;15.536;2024-01-27T06:27:56;5.40;63.80
29687;DHT22;16599;47.078;15.536;2024-01-27T06:30:24;5.50;63.90
29687;DHT22;16599;47.078;15.536;2024-01-27T06:32:51;5.70;62.00
29687;DHT22;16599;47.078;15.536;2024-01-27T06:35:18;5.90;61.40
29687;DHT22;16599;47.078;15.536;2024-01-27T06:37:45;5.40;63.80
29687;DHT22;16599;47.078;15.536;2024-01-27T06:40:11;5.20;65.50
29687;DHT22;16599;47.078;15.536;2024-01-27T06:42:38;4.90;66.10
29687;DHT22;16599;47.078;15.536;2024-01-27T06:45:05;5.50;63.70
29687;DHT22;16599;47.078;15.536;2024-01-27T06:47:32;5.40;63.80
29687;DHT22;16599;47.078;15.536;2024-01-27T06:49:59;5.30;64.50
29687;DHT22;16599;47.078;15.536;2024-01-27T06:52:26;5.00;64.90
29687;DHT22;16599;47.078;15.536;2024-01-27T06:54:53;5.00;65.50
29687;DHT22;16599;47.078;15.536;2024-01-27T06:57:20;4.70;67.50
29687;DHT22;16599;47.078;15.536;2024-01-27T06:59:50;4.80;67.20
29687;DHT22;16599;47.078;15.536;2024-01-27T07:02:22;3.90;71.70
29687;DHT22;16599;47.078;15.536;2024-01-27T07:04:49;4.60;69.10
29687;DHT22;16599;47.078;15.536;2024-01-27T07:07:16;5.30;64.60
29687;DHT22;16599;47.078;15.536;2024-01-27T07:09:43;5.00;66.00
29687;DHT22;16599;47.078;15.536;2024-01-27T07:12:10;4.70;67.80
29687;DHT22;16599;47.078;15.536;2024-01-27T07:14:37;4.70;68.00
29687;DHT22;16599;47.078;15.536;2024-01-27T07:17:04;4.70;67.60
29687;DHT22;16599;47.078;15.536;2024-01-27T07:19:31;5.20;64.30
29687;DHT22;16599;47.078;15.536;2024-01-27T07:21:59;5.10;64.80
29687;DHT22;16599;47.078;15.536;2024-01-27T07:24:30;5.30;64.40
29687;DHT22;16599;47.078;15.536;2024-01-27T07:26:59;5.20;64.70
29687;DHT22;16599;47.078;15.536;2024-01-27T07:29:26;4.90;65.80
29687;DHT22;16599;47.078;15.536;2024-01-27T07:31:53;5.10;66.20
29687;DHT22;16599;47.078;15.536;2024-01-27T07:34:22;5.10;65.60
29687;DHT22;16599;47.078;15.536;2024-01-27T07:36:49;5.40;64.00
29687;DHT22;16599;47.078;15.536;2024-01-27T07:39:15;5.10;65.00
29687;DHT22;16599;47.078;15.536;2024-01-27T07:41:43;5.30;63.60
29687;DHT22;16599;47.078;15.536;2024-01-27T07:44:10;5.30;64.40
29687;DHT22;16599;47.078;15.536;2024-01-27T07:46:37;5.50;62.90
29687;DHT22;16599;47.078;15.536;2024-01-27T07:49:05;5.30;65.20
29687;DHT22;16599;47.078;15.536;2024-01-27T07:51:32;5.10;65.80
29687;DHT22;16599;47.078;15.536;2024-01-27T07:53:59;5.50;64.00
29687;DHT22;16599;47.078;15.536;2024-01-27T07:56:26;5.40;65.00
29687;DHT22;16599;47.078;15.536;2024-01-27T07:58:53;5.50;64.10
29687;DHT22;16599;47.078;15.536;2024-01-27T08:01:20;5.60;63.50
29687;DHT22;16599;47.078;15.536;2024-01-27T08:03:47;5.80;63.40
29687;DHT22;16599;47.078;15.536;2024-01-27T08:06:15;5.50;64.50
29687;DHT22;16599;47.078;15.536;2024-01-27T08:08:44;5.60;64.90
29687;DHT22;16599;47.078;15.536;2024-01-27T08:11:11;5.60;65.50
29687;DHT22;16599;47.078;15.536;2024-01-27T08:13:38;5.80;65.60
29687;DHT22;16599;47.078;15.536;2024-01-27T08:16:05;5.80;65.20
29687;DHT22;16599;47.078;15.536;2024-01-27T08:18:32;5.80;66.90
29687;DHT22;16599;47.078;15.536;2024-01-27T08:20:59;5.70;64.50
29687;DHT22;16599;47.078;15.536;2024-01-27T08:23:25;5.80;66.00
29687;DHT22;16599;47.078;15.536;2024-01-27T08:25:52;5.90;65.50
29687;DHT22;16599;47.078;15.536;2024-01-27T08:28:19;6.10;63.60
29687;DHT22;16599;47.078;15.536;2024-01-27T08:30:46;6.20;64.40
29687;DHT22;16599;47.078;15.536;2024-01-27T08:33:12;6.30;62.20
29687;DHT22;16599;47.078;15.536;2024-01-27T08:35:39;6.60;59.20
29687;DHT22;16599;47.078;15.536;2024-01-27T08:38:07;6.70;61.70
29687;DHT22;16599;47.078;15.536;2024-01-27T08:40:35;6.60;60.60
29687;DHT22;16599;47.078;15.536;2024-01-27T08:43:02;6.60;61.40
29687;DHT22;16599;47.078;15.536;2024-01-27T08:45:29;6.90;58.90
29687;DHT22;16599;47.078;15.536;2024-01-27T08:47:56;7.20;58.00
29687;DHT22;16599;47.078;15.536;2024-01-27T08:50:22;7.30;56.80
29687;DHT22;16599;47.078;15.536;2024-01-27T08:52:49;7.20;57.50
29687;DHT22;16599;47.078;15.536;2024-01-27T08:55:16;7.00;57.30
29687;DHT22;16599;47.078;15.536;2024-01-27T08:57:46;7.00;62.20
29687;DHT22;16599;47.078;15.536;2024-01-27T09:00:13;7.10;57.20
29687;DHT22;16599;47.078;15.536;2024-01-27T09:02:40;7.20;57.50
29687;DHT22;16599;47.078;15.536;2024-01-27T09:05:06;7.40;60.70
29687;DHT22;16599;47.078;15.536;2024-01-27T09:07:34;7.20;58.30
29687;DHT22;16599;47.078;15.536;2024-01-27T09:10:00;7.20;58.60
29687;DHT22;16599;47.078;15.536;2024-01-27T09:12:27;7.70;55.20
29687;DHT22;16599;47.078;15.536;2024-01-27T09:14:54;7.80;53.30
29687;DHT22;16599;47.078;15.536;2024-01-27T09:17:21;7.70;54.40
29687;DHT22;16599;47.078;15.536;2024-01-27T09:19:48;7.50;54.00
29687;DHT22;16599;47.078;15.536;2024-01-27T09:22:15;7.50;54.80
29687;DHT22;16599;47.078;15.536;2024-01-27T09:24:41;7.70;56.00
29687;DHT22;16599;47.078;15.536;2024-01-27T09:27:08;8.20;57.10
29687;DHT22;16599;47.078;15.536;2024-01-27T09:29:35;8.00;55.30
29687;DHT22;16599;47.078;15.536;2024-01-27T09:32:02;7.90;51.90
29687;DHT22;16599;47.078;15.536;2024-01-27T09:34:28;7.90;53.50
29687;DHT22;16599;47.078;15.536;2024-01-27T09:36:55;8.60;55.50
29687;DHT22;16599;47.078;15.536;2024-01-27T09:39:22;8.40;55.70
29687;DHT22;16599;47.078;15.536;2024-01-27T09:41:49;8.60;54.80
29687;DHT22;16599;47.078;15.536;2024-01-27T09:44:17;8.40;53.90
29687;DHT22;16599;47.078;15.536;2024-01-27T09:46:45;8.20;53.50
29687;DHT22;16599;47.078;15.536;2024-01-27T09:49:12;8.40;55.00
29687;DHT22;16599;47.078;15.536;2024-01-27T09:51:42;8.50;53.80
29687;DHT22;16599;47.078;15.536;2024-01-27T09:54:09;8.70;54.90
29687;DHT22;16599;47.078;15.536;2024-01-27T09:56:36;8.60;54.30
29687;DHT22;16599;47.078;15.536;2024-01-27T09:59:05;8.70;56.00
29687;DHT22;16599;47.078;15.536;2024-01-27T10:01:32;8.70;54.50
29687;DHT22;16599;47.078;15.536;2024-01-27T10:03:59;9.00;51.90
29687;DHT22;16599;47.078;15.536;2024-01-27T10:06:26;9.10;55.20
29687;DHT22;16599;47.078;15.536;2024-01-27T10:08:54;9.20;55.10
29687;DHT22;16599;47.078;15.536;2024-01-27T10:11:21;9.00;51.20
29687;DHT22;16599;47.078;15.536;2024-01-27T10:13:55;8.90;51.10
29687;DHT22;16599;47.078;15.536;2024-01-27T10:16:25;9.00;49.50
29687;DHT22;16599;47.078;15.536;2024-01-27T10:18:59;8.70;51.90
29687;DHT22;16599;47.078;15.536;2024-01-27T10:21:27;9.10;49.70
29687;DHT22;16599;47.078;15.536;2024-01-27T10:23:53;9.20;47.80
29687;DHT22;16599;47.078;15.536;2024-01-27T10:26:20;9.00;48.90
29687;DHT22;16599;47.078;15.536;2024-01-27T10:28:54;9.10;47.80
29687;DHT22;16599;47.078;15.536;2024-01-27T10:31:25;9.20;47.80
29687;DHT22;16599;47.078;15.536;2024-01-27T10:33:53;9.20;48.80
29687;DHT22;16599;47.078;15.536;2024-01-27T10:36:20;9.40;47.40
29687;DHT22;16599;47.078;15.536;2024-01-27T10:38:47;9.20;47.30
29687;DHT22;16599;47.078;15.536;2024-01-27T10:41:20;9.20;45.50
29687;DHT22;16599;47.078;15.536;2024-01-27T10:43:47;9.20;43.80
29687;DHT22;16599;47.078;15.536;2024-01-27T10:46:16;9.00;44.20
29687;DHT22;16599;47.078;15.536;2024-01-27T10:48:45;9.60;44.30
29687;DHT22;16599;47.078;15.536;2024-01-27T10:51:15;9.40;42.20
29687;DHT22;16599;47.078;15.536;2024-01-27T10:53:44;9.60;44.90
29687;DHT22;16599;47.078;15.536;2024-01-27T10:56:11;9.70;45.20
29687;DHT22;16599;47.078;15.536;2024-01-27T10:58:38;9.70;44.60
29687;DHT22;16599;47.078;15.536;2024-01-27T11:01:10;9.80;46.10
29687;DHT22;16599;47.078;15.536;2024-01-27T11:03:38;9.80;48.10
29687;DHT22;16599;47.078;15.536;2024-01-27T11:06:06;9.70;45.30
29687;DHT22;16599;47.078;15.536;2024-01-27T11:08:33;9.70;43.50
29687;DHT22;16599;47.078;15.536;2024-01-27T11:11:00;9.40;43.50
29687;DHT22;16599;47.078;15.536;2024-01-27T11:13:28;9.30;40.80
29687;DHT22;16599;47.078;15.536;2024-01-27T11:15:56;9.30;42.50
29687;DHT22;16599;47.078;15.536;2024-01-27T11:18:28;9.50;42.30
29687;DHT22;16599;47.078;15.536;2024-01-27T11:20:58;9.40;41.40
29687;DHT22;16599;47.078;15.536;2024-01-27T11:23:31;9.50;41.20
29687;DHT22;16599;47.078;15.536;2024-01-27T11:26:06;9.40;40.60
29687;DHT22;16599;47.078;15.536;2024-01-27T11:28:33;9.30;42.70
29687;DHT22;16599;47.078;15.536;2024-01-27T11:31:06;9.40;41.10
29687;DHT22;16599;47.078;15.536;2024-01-27T11:33:33;9.50;42.60
29687;DHT22;16599;47.078;15.536;2024-01-27T11:36:07;10.00;41.80
29687;DHT22;16599;47.078;15.536;2024-01-27T11:38:34;9.80;41.10
29687;DHT22;16599;47.078;15.536;2024-01-27T11:41:01;9.60;39.90
29687;DHT22;16599;47.078;15.536;2024-01-27T11:43:28;9.50;40.60
29687;DHT22;16599;47.078;15.536;2024-01-27T11:45:56;9.70;40.40
29687;DHT22;16599;47.078;15.536;2024-01-27T11:48:23;9.90;41.60
29687;DHT22;16599;47.078;15.536;2024-01-27T11:51:02;9.60;41.30
29687;DHT22;16599;47.078;15.536;2024-01-27T11:53:28;9.90;41.10
29687;DHT22;16599;47.078;15.536;2024-01-27T11:55:55;9.80;41.90
29687;DHT22;16599;47.078;15.536;2024-01-27T11:58:27;9.50;40.50
29687;DHT22;16599;47.078;15.536;2024-01-27T12:00:53;10.10;41.70
29687;DHT22;16599;47.078;15.536;2024-01-27T12:03:20;10.20;41.50
29687;DHT22;16599;47.078;15.536;2024-01-27T12:05:48;9.90;40.20
29687;DHT22;16599;47.078;15.536;2024-01-27T12:08:16;10.10;40.10
29687;DHT22;16599;47.078;15.536;2024-01-27T12:10:43;10.00;41.70
29687;DHT22;16599;47.078;15.536;2024-01-27T12:13:10;10.00;41.10
29687;DHT22;16599;47.078;15.536;2024-01-27T12:15:36;9.70;41.70
29687;DHT22;16599;47.078;15.536;2024-01-27T12:18:06;9.70;40.90
29687;DHT22;16599;47.078;15.536;2024-01-27T12:20:33;9.60;39.10
29687;DHT22;16599;47.078;15.536;2024-01-27T12:23:03;9.80;41.90
29687;DHT22;16599;47.078;15.536;2024-01-27T12:25:31;9.80;40.00
29687;DHT22;16599;47.078;15.536;2024-01-27T12:28:01;10.10;40.60
29687;DHT22;16599;47.078;15.536;2024-01-27T12:30:28;10.30;41.00
29687;DHT22;16599;47.078;15.536;2024-01-27T12:32:55;10.40;38.50
29687;DHT22;16599;47.078;15.536;2024-01-27T12:35:23;10.00;38.60
29687;DHT22;16599;47.078;15.536;2024-01-27T12:37:50;9.90;39.40
29687;DHT22;16599;47.078;15.536;2024-01-27T12:40:17;9.80;39.00
29687;DHT22;16599;47.078;15.536;2024-01-27T12:42:49;9.70;39.30
29687;DHT22;16599;47.078;15.536;2024-01-27T12:45:16;9.70;39.50
29687;DHT22;16599;47.078;15.536;2024-01-27T12:47:43;9.80;40.10
29687;DHT22;16599;47.078;15.536;2024-01-27T12:50:10;9.50;40.00
29687;DHT22;16599;47.078;15.536;2024-01-27T12:52:37;9.60;40.20
29687;DHT22;16599;47.078;15.536;2024-01-27T12:55:04;9.80;39.00
29687;DHT22;16599;47.078;15.536;2024-01-27T12:57:31;9.70;38.10
29687;DHT22;16599;47.078;15.536;2024-01-27T12:59:58;9.90;38.90
29687;DHT22;16599;47.078;15.536;2024-01-27T13:02:25;9.90;38.50
29687;DHT22;16599;47.078;15.536;2024-01-27T13:04:52;9.60;39.00
29687;DHT22;16599;47.078;15.536;2024-01-27T13:07:19;9.80;40.50
29687;DHT22;16599;47.078;15.536;2024-01-27T13:09:46;9.70;39.90
29687;DHT22;16599;47.078;15.536;2024-01-27T13:12:12;9.90;40.10
29687;DHT22;16599;47.078;15.536;2024-01-27T13:14:39;9.90;40.20
29687;DHT22;16599;47.078;15.536;2024-01-27T13:17:06;9.40;39.90
29687;DHT22;16599;47.078;15.536;2024-01-27T13:19:33;9.60;39.80
29687;DHT22;16599;47.078;15.536;2024-01-27T13:22:00;9.80;40.40
29687;DHT22;16599;47.078;15.536;2024-01-27T13:24:28;9.60;39.30
29687;DHT22;16599;47.078;15.536;2024-01-27T13:26:55;9.40;39.50
29687;DHT22;16599;47.078;15.536;2024-01-27T13:29:21;9.50;39.70
29687;DHT22;16599;47.078;15.536;2024-01-27T13:31:50;9.50;41.00
29687;DHT22;16599;47.078;15.536;2024-01-27T13:34:16;9.70;40.30
29687;DHT22;16599;47.078;15.536;2024-01-27T13:36:43;9.50;40.70
29687;DHT22;16599;47.078;15.536;2024-01-27T13:39:10;9.60;40.60
29687;DHT22;16599;47.078;15.536;2024-01-27T13:41:38;9.80;40.20
29687;DHT22;16599;47.078;15.536;2024-01-27T13:44:05;9.70;39.80
29687;DHT22;16599;47.078;15.536;2024-01-27T13:46:32;9.50;39.20
29687;DHT22;16599;47.078;15.536;2024-01-27T13:48:59;9.30;39.80
29687;DHT22;16599;47.078;15.536;2024-01-27T13:51:26;9.30;41.40
29687;DHT22;16599;47.078;15.536;2024-01-27T13:53:53;9.50;41.10
29687;DHT22;16599;47.078;15.536;2024-01-27T13:56:20;9.30;40.00
29687;DHT22;16599;47.078;15.536;2024-01-27T13:58:46;9.70;40.00
29687;DHT22;16599;47.078;15.536;2024-01-27T14:01:13;9.40;39.70
29687;DHT22;16599;47.078;15.536;2024-01-27T14:03:40;9.10;40.40
29687;DHT22;16599;47.078;15.536;2024-01-27T14:06:07;9.10;41.10
29687;DHT22;16599;47.078;15.536;2024-01-27T14:08:40;9.00;40.70
29687;DHT22;16599;47.078;15.536;2024-01-27T14:11:07;9.00;40.30
29687;DHT22;16599;47.078;15.536;2024-01-27T14:13:33;8.90;41.00
29687;DHT22;16599;47.078;15.536;2024-01-27T14:16:00;8.90;41.40
29687;DHT22;16599;47.078;15.536;2024-01-27T14:18:27;8.90;40.70
29687;DHT22;16599;47.078;15.536;2024-01-27T14:20:55;8.80;40.80
29687;DHT22;16599;47.078;15.536;2024-01-27T14:23:21;8.70;40.70
29687;DHT22;16599;47.078;15.536;2024-01-27T14:25:48;8.70;40.20
29687;DHT22;16599;47.078;15.536;2024-01-27T14:28:15;8.70;40.10
29687;DHT22;16599;47.078;15.536;2024-01-27T14:30:43;8.70;42.20
29687;DHT22;16599;47.078;15.536;2024-01-27T14:33:11;8.70;40.30
29687;DHT22;16599;47.078;15.536;2024-01-27T14:35:39;8.60;41.30
29687;DHT22;16599;47.078;15.536;2024-01-27T14:38:06;8.60;40.60
29687;DHT22;16599;47.078;15.536;2024-01-27T14:40:35;8.60;40.70
29687;DHT22;16599;47.078;15.536;2024-01-27T14:43:03;8.60;41.90
29687;DHT22;16599;47.078;15.536;2024-01-27T14:45:35;8.60;41.30
29687;DHT22;16599;47.078;15.536;2024-01-27T14:48:02;8.50;41.60
29687;DHT22;16599;47.078;15.536;2024-01-27T14:50:30;8.50;42.00
29687;DHT22;16599;47.078;15.536;2024-01-27T14:52:57;8.40;41.90
29687;DHT22;16599;47.078;15.536;2024-01-27T14:55:25;8.30;42.20
29687;DHT22;16599;47.078;15.536;2024-01-27T14:57:53;8.30;42.60
29687;DHT22;16599;47.078;15.536;2024-01-27T15:00:19;8.40;41.70
29687;DHT22;16599;47.078;15.536;2024-01-27T15:02:46;8.30;42.50
29687;DHT22;16599;47.078;15.536;2024-01-27T15:05:14;8.10;43.70
29687;DHT22;16599;47.078;15.536;2024-01-27T15:07:41;8.00;43.20
29687;DHT22;16599;47.078;15.536;2024-01-27T15:10:08;8.10;42.70
29687;DHT22;16599;47.078;15.536;2024-01-27T15:12:36;8.20;42.10
29687;DHT22;16599;47.078;15.536;2024-01-27T15:15:03;8.10;42.20
29687;DHT22;16599;47.078;15.536;2024-01-27T15:17:30;8.10;42.60
29687;DHT22;16599;47.078;15.536;2024-01-27T15:19:57;8.20;41.60
29687;DHT22;16599;47.078;15.536;2024-01-27T15:22:24;8.10;42.70
29687;DHT22;16599;47.078;15.536;2024-01-27T15:24:51;8.10;41.90
29687;DHT22;16599;47.078;15.536;2024-01-27T15:27:19;8.00;42.30
29687;DHT22;16599;47.078;15.536;2024-01-27T15:29:46;8.00;42.50